sensor_id;sensor_type;location;lat;lon;timestamp;temperature;humidity
4556;DHT22;2290;48.674;9.018;2022-12-18T00:00:44;-9.00;99.90
4556;DHT22;2290;48.674;9.018;2022-12-18T00:03:13;-9.00;99.90
4556;DHT22;2290;48.674;9.018;2022-12-18T00:05:49;-9.10;99.90
4556;DHT22;2290;48.674;9.018;2022-12-18T00:08:16;-9.10;99.90
4556;DHT22;2290;48.674;9.018;2022-12-18T00:10:42;-9.20;99.90
4556;DHT22;2290;48.674;9.018;2022-12-18T00:13:08;-9.20;99.90
4556;DHT22;2290;48.674;9.018;2022-12-18T00:15:35;-9.30;99.90
4556;DHT22;2290;48.674;9.018;2022-12-18T00:18:01;-9.20;99.90
4556;DHT22;2290;48.674;9.018;2022-12-18T00:20:26;-9.10;99.90
4556;DHT22;2290;48.674;9.018;2022-12-18T00:22:53;-9.10;99.90
4556;DHT22;2290;48.674;9.018;2022-12-18T00:25:18;-8.80;99.90
4556;DHT22;2290;48.674;9.018;2022-12-18T00:27:44;-8.90;99.90
4556;DHT22;2290;48.674;9.018;2022-12-18T00:30:10;-8.90;99.90
4556;DHT22;2290;48.674;9.018;2022-12-18T00:32:36;-9.00;99.90
4556;DHT22;2290;48.674;9.018;2022-12-18T00:35:03;-8.90;99.90
4556;DHT22;2290;48.674;9.018;2022-12-18T00:37:28;-9.00;99.90
4556;DHT22;2290;48.674;9.018;2022-12-18T00:39:54;-8.90;99.90
4556;DHT22;2290;48.674;9.018;2022-12-18T00:42:19;-8.80;99.90
4556;DHT22;2290;48.674;9.018;2022-12-18T00:45:04;-8.70;99.90
4556;DHT22;2290;48.674;9.018;2022-12-18T00:47:30;-8.70;99.90
4556;DHT22;2290;48.674;9.018;2022-12-18T00:49:55;-8.70;99.90
4556;DHT22;2290;48.674;9.018;2022-12-18T00:52:22;-8.80;99.90
4556;DHT22;2290;48.674;9.018;2022-12-18T00:54:47;-8.80;99.90
4556;DHT22;2290;48.674;9.018;2022-12-18T00:57:13;-8.70;99.90
4556;DHT22;2290;48.674;9.018;2022-12-18T00:59:38;-8.70;99.90
4556;DHT22;2290;48.674;9.018;2022-12-18T01:02:04;-9.00;99.90
4556;DHT22;2290;48.674;9.018;2022-12-18T01:04:31;-9.00;99.90
4556;DHT22;2290;48.674;9.018;2022-12-18T01:06:57;-9.00;99.90
4556;DHT22;2290;48.674;9.018;2022-12-18T01:09:23;-9.10;99.90
4556;DHT22;2290;48.674;9.018;2022-12-18T01:11:48;-9.10;99.90
4556;DHT22;2290;48.674;9.018;2022-12-18T01:14:14;-9.10;99.90
4556;DHT22;2290;48.674;9.018;2022-12-18T01:16:39;-9.40;99.90
4556;DHT22;2290;48.674;9.018;2022-12-18T01:19:05;-9.40;99.90
4556;DHT22;2290;48.674;9.018;2022-12-18T01:21:31;-9.40;99.90
4556;DHT22;2290;48.674;9.018;2022-12-18T01:23:56;-9.40;99.90
4556;DHT22;2290;48.674;9.018;2022-12-18T01:26:23;-9.30;99.90
4556;DHT22;2290;48.674;9.018;2022-12-18T01:28:49;-9.10;99.90
4556;DHT22;2290;48.674;9.018;2022-12-18T01:31:21;-9.00;99.90
4556;DHT22;2290;48.674;9.018;2022-12-18T01:33:47;-8.90;99.90
4556;DHT22;2290;48.674;9.018;2022-12-18T01:36:21;-8.80;99.90
4556;DHT22;2290;48.674;9.018;2022-12-18T01:38:48;-8.80;99.90
4556;DHT22;2290;48.674;9.018;2022-12-18T01:41:15;-8.80;99.90
4556;DHT22;2290;48.674;9.018;2022-12-18T01:43:49;-8.70;99.90
4556;DHT22;2290;48.674;9.018;2022-12-18T01:46:17;-8.90;99.90
4556;DHT22;2290;48.674;9.018;2022-12-18T01:48:43;-8.90;99.90
4556;DHT22;2290;48.674;9.018;2022-12-18T01:51:11;-8.80;99.90
4556;DHT22;2290;48.674;9.018;2022-12-18T01:53:39;-8.80;99.90
4556;DHT22;2290;48.674;9.018;2022-12-18T01:56:06;-8.80;99.90
4556;DHT22;2290;48.674;9.018;2022-12-18T01:58:38;-8.80;99.90
4556;DHT22;2290;48.674;9.018;2022-12-18T02:01:05;-8.70;99.90
4556;DHT22;2290;48.674;9.018;2022-12-18T02:03:30;-8.60;99.90
4556;DHT22;2290;48.674;9.018;2022-12-18T02:14:10;-8.30;99.90
4556;DHT22;2290;48.674;9.018;2022-12-18T02:17:01;-8.30;99.90
4556;DHT22;2290;48.674;9.018;2022-12-18T02:26:10;-8.10;99.90
4556;DHT22;2290;48.674;9.018;2022-12-18T02:28:44;-8.20;99.90
4556;DHT22;2290;48.674;9.018;2022-12-18T02:31:14;-8.20;99.90
4556;DHT22;2290;48.674;9.018;2022-12-18T02:33:42;-8.20;99.90
4556;DHT22;2290;48.674;9.018;2022-12-18T02:36:10;-8.20;99.90
4556;DHT22;2290;48.674;9.018;2022-12-18T02:38:38;-8.00;99.90
4556;DHT22;2290;48.674;9.018;2022-12-18T02:41:05;-7.90;99.90
4556;DHT22;2290;48.674;9.018;2022-12-18T02:43:31;-7.90;99.90
4556;DHT22;2290;48.674;9.018;2022-12-18T02:45:59;-7.80;99.90
4556;DHT22;2290;48.674;9.018;2022-12-18T02:48:32;-7.90;99.90
4556;DHT22;2290;48.674;9.018;2022-12-18T02:52:20;-7.90;99.90
4556;DHT22;2290;48.674;9.018;2022-12-18T02:57:53;-8.00;99.90
4556;DHT22;2290;48.674;9.018;2022-12-18T03:00:37;-7.90;99.90
4556;DHT22;2290;48.674;9.018;2022-12-18T03:03:14;-7.80;99.90
4556;DHT22;2290;48.674;9.018;2022-12-18T03:05:47;-7.70;99.90
4556;DHT22;2290;48.674;9.018;2022-12-18T03:08:19;-7.60;99.90
4556;DHT22;2290;48.674;9.018;2022-12-18T03:10:49;-7.50;99.90
4556;DHT22;2290;48.674;9.018;2022-12-18T03:13:23;-7.50;99.90
4556;DHT22;2290;48.674;9.018;2022-12-18T03:15:51;-7.40;99.90
4556;DHT22;2290;48.674;9.018;2022-12-18T03:18:36;-7.50;99.90
4556;DHT22;2290;48.674;9.018;2022-12-18T03:21:06;-7.50;99.90
4556;DHT22;2290;48.674;9.018;2022-12-18T03:23:36;-7.50;99.90
4556;DHT22;2290;48.674;9.018;2022-12-18T03:26:07;-7.50;99.90
4556;DHT22;2290;48.674;9.018;2022-12-18T03:28:38;-7.40;99.90
4556;DHT22;2290;48.674;9.018;2022-12-18T03:31:05;-7.40;99.90
4556;DHT22;2290;48.674;9.018;2022-12-18T03:33:43;-7.30;99.90
4556;DHT22;2290;48.674;9.018;2022-12-18T03:36:11;-7.20;99.90
4556;DHT22;2290;48.674;9.018;2022-12-18T03:38:37;-7.20;99.90
4556;DHT22;2290;48.674;9.018;2022-12-18T03:41:27;-7.10;99.90
4556;DHT22;2290;48.674;9.018;2022-12-18T03:44:14;-7.00;99.90
4556;DHT22;2290;48.674;9.018;2022-12-18T03:47:14;-7.10;99.90
4556;DHT22;2290;48.674;9.018;2022-12-18T03:50:01;-7.10;99.90
4556;DHT22;2290;48.674;9.018;2022-12-18T03:52:34;-7.00;99.90
4556;DHT22;2290;48.674;9.018;2022-12-18T03:55:02;-6.90;99.90
4556;DHT22;2290;48.674;9.018;2022-12-18T03:57:31;-7.00;99.90
4556;DHT22;2290;48.674;9.018;2022-12-18T04:00:23;-7.00;99.90
4556;DHT22;2290;48.674;9.018;2022-12-18T04:02:52;-7.00;99.90
4556;DHT22;2290;48.674;9.018;2022-12-18T04:05:19;-7.00;99.90
4556;DHT22;2290;48.674;9.018;2022-12-18T04:07:47;-7.00;99.90
4556;DHT22;2290;48.674;9.018;2022-12-18T04:10:15;-7.00;99.90
4556;DHT22;2290;48.674;9.018;2022-12-18T04:12:41;-7.00;99.90
4556;DHT22;2290;48.674;9.018;2022-12-18T04:15:08;-7.00;99.90
4556;DHT22;2290;48.674;9.018;2022-12-18T04:17:33;-7.00;99.90
4556;DHT22;2290;48.674;9.018;2022-12-18T04:19:59;-7.10;99.90
4556;DHT22;2290;48.674;9.018;2022-12-18T04:22:24;-7.10;99.90
4556;DHT22;2290;48.674;9.018;2022-12-18T04:24:50;-7.10;99.90
4556;DHT22;2290;48.674;9.018;2022-12-18T04:27:16;-7.10;99.90
4556;DHT22;2290;48.674;9.018;2022-12-18T04:29:41;-7.20;99.90
4556;DHT22;2290;48.674;9.018;2022-12-18T04:32:07;-7.10;99.90
4556;DHT22;2290;48.674;9.018;2022-12-18T04:34:33;-7.10;99.90
4556;DHT22;2290;48.674;9.018;2022-12-18T04:36:58;-7.10;99.90
4556;DHT22;2290;48.674;9.018;2022-12-18T04:39:24;-7.10;99.90
4556;DHT22;2290;48.674;9.018;2022-12-18T04:41:50;-7.10;99.90
4556;DHT22;2290;48.674;9.018;2022-12-18T04:44:16;-7.10;99.90
4556;DHT22;2290;48.674;9.018;2022-12-18T04:46:42;-7.10;99.90
4556;DHT22;2290;48.674;9.018;2022-12-18T04:49:07;-7.10;99.90
4556;DHT22;2290;48.674;9.018;2022-12-18T04:51:33;-7.10;99.90
4556;DHT22;2290;48.674;9.018;2022-12-18T04:53:58;-7.10;99.90
4556;DHT22;2290;48.674;9.018;2022-12-18T04:56:25;-7.10;99.90
4556;DHT22;2290;48.674;9.018;2022-12-18T04:58:51;-7.10;99.90
4556;DHT22;2290;48.674;9.018;2022-12-18T05:01:17;-7.20;99.90
4556;DHT22;2290;48.674;9.018;2022-12-18T05:03:43;-7.10;99.90
4556;DHT22;2290;48.674;9.018;2022-12-18T05:06:09;-7.20;99.90
4556;DHT22;2290;48.674;9.018;2022-12-18T05:08:34;-7.20;99.90
4556;DHT22;2290;48.674;9.018;2022-12-18T05:11:12;-7.20;99.90
4556;DHT22;2290;48.674;9.018;2022-12-18T05:13:40;-7.20;99.90
4556;DHT22;2290;48.674;9.018;2022-12-18T05:16:06;-7.20;99.90
4556;DHT22;2290;48.674;9.018;2022-12-18T05:18:31;-7.20;99.90
4556;DHT22;2290;48.674;9.018;2022-12-18T05:20:57;-7.10;99.90
4556;DHT22;2290;48.674;9.018;2022-12-18T05:23:25;-7.10;99.90
4556;DHT22;2290;48.674;9.018;2022-12-18T05:25:59;-7.10;99.90
4556;DHT22;2290;48.674;9.018;2022-12-18T05:28:26;-7.10;99.90
4556;DHT22;2290;48.674;9.018;2022-12-18T05:30:56;-7.10;99.90
4556;DHT22;2290;48.674;9.018;2022-12-18T05:33:23;-7.10;99.90
4556;DHT22;2290;48.674;9.018;2022-12-18T05:36:08;-7.00;99.90
4556;DHT22;2290;48.674;9.018;2022-12-18T05:38:36;-7.10;99.90
4556;DHT22;2290;48.674;9.018;2022-12-18T05:41:02;-7.00;99.90
4556;DHT22;2290;48.674;9.018;2022-12-18T05:43:28;-7.00;99.90
4556;DHT22;2290;48.674;9.018;2022-12-18T05:45:54;-7.00;99.90
4556;DHT22;2290;48.674;9.018;2022-12-18T05:48:20;-7.00;99.90
4556;DHT22;2290;48.674;9.018;2022-12-18T05:50:47;-7.00;99.90
4556;DHT22;2290;48.674;9.018;2022-12-18T05:53:15;-7.10;99.90
4556;DHT22;2290;48.674;9.018;2022-12-18T05:55:41;-7.10;99.90
4556;DHT22;2290;48.674;9.018;2022-12-18T05:58:09;-7.10;99.90
4556;DHT22;2290;48.674;9.018;2022-12-18T06:00:37;-7.20;99.90
4556;DHT22;2290;48.674;9.018;2022-12-18T06:03:06;-7.30;99.90
4556;DHT22;2290;48.674;9.018;2022-12-18T06:05:36;-7.50;99.90
4556;DHT22;2290;48.674;9.018;2022-12-18T06:08:02;-7.70;99.90
4556;DHT22;2290;48.674;9.018;2022-12-18T06:10:28;-7.70;99.90
4556;DHT22;2290;48.674;9.018;2022-12-18T06:12:53;-7.70;99.90
4556;DHT22;2290;48.674;9.018;2022-12-18T06:15:19;-7.70;99.90
4556;DHT22;2290;48.674;9.018;2022-12-18T06:17:45;-7.80;99.90
4556;DHT22;2290;48.674;9.018;2022-12-18T06:20:10;-7.90;99.90
4556;DHT22;2290;48.674;9.018;2022-12-18T06:22:36;-7.80;99.90
4556;DHT22;2290;48.674;9.018;2022-12-18T06:25:02;-7.80;99.90
4556;DHT22;2290;48.674;9.018;2022-12-18T06:27:27;-7.70;99.90
4556;DHT22;2290;48.674;9.018;2022-12-18T06:29:53;-7.60;99.90
4556;DHT22;2290;48.674;9.018;2022-12-18T06:32:18;-7.60;99.90
4556;DHT22;2290;48.674;9.018;2022-12-18T06:34:44;-7.50;99.90
4556;DHT22;2290;48.674;9.018;2022-12-18T06:37:09;-7.60;99.90
4556;DHT22;2290;48.674;9.018;2022-12-18T06:39:35;-7.70;99.90
4556;DHT22;2290;48.674;9.018;2022-12-18T06:42:00;-7.80;99.90
4556;DHT22;2290;48.674;9.018;2022-12-18T06:44:26;-7.90;99.90
4556;DHT22;2290;48.674;9.018;2022-12-18T06:46:53;-8.00;99.90
4556;DHT22;2290;48.674;9.018;2022-12-18T06:49:19;-8.10;99.90
4556;DHT22;2290;48.674;9.018;2022-12-18T07:09:52;-8.40;99.90
4556;DHT22;2290;48.674;9.018;2022-12-18T07:12:18;-8.40;99.90
4556;DHT22;2290;48.674;9.018;2022-12-18T07:14:43;-8.40;99.90
4556;DHT22;2290;48.674;9.018;2022-12-18T07:22:20;-8.30;99.90
4556;DHT22;2290;48.674;9.018;2022-12-18T07:24:45;-8.30;99.90
4556;DHT22;2290;48.674;9.018;2022-12-18T07:27:11;-8.20;99.90
4556;DHT22;2290;48.674;9.018;2022-12-18T07:29:36;-8.10;99.90
4556;DHT22;2290;48.674;9.018;2022-12-18T07:32:02;-8.00;99.90
4556;DHT22;2290;48.674;9.018;2022-12-18T07:34:28;-7.80;99.90
4556;DHT22;2290;48.674;9.018;2022-12-18T07:36:53;-7.70;99.90
4556;DHT22;2290;48.674;9.018;2022-12-18T07:39:19;-7.60;99.90
4556;DHT22;2290;48.674;9.018;2022-12-18T07:41:44;-7.40;99.90
4556;DHT22;2290;48.674;9.018;2022-12-18T07:44:31;-7.30;99.90
4556;DHT22;2290;48.674;9.018;2022-12-18T07:46:57;-7.20;99.90
4556;DHT22;2290;48.674;9.018;2022-12-18T07:49:22;-7.10;99.90
4556;DHT22;2290;48.674;9.018;2022-12-18T07:51:48;-7.10;99.90
4556;DHT22;2290;48.674;9.018;2022-12-18T07:54:14;-7.10;99.90
4556;DHT22;2290;48.674;9.018;2022-12-18T07:56:40;-7.00;99.90
4556;DHT22;2290;48.674;9.018;2022-12-18T07:59:05;-7.00;99.90
4556;DHT22;2290;48.674;9.018;2022-12-18T08:01:31;-6.90;99.90
4556;DHT22;2290;48.674;9.018;2022-12-18T08:03:57;-6.90;99.90
4556;DHT22;2290;48.674;9.018;2022-12-18T08:06:23;-6.80;99.90
4556;DHT22;2290;48.674;9.018;2022-12-18T08:08:53;-6.70;99.90
4556;DHT22;2290;48.674;9.018;2022-12-18T08:11:19;-6.60;99.90
4556;DHT22;2290;48.674;9.018;2022-12-18T08:13:45;-6.30;99.90
4556;DHT22;2290;48.674;9.018;2022-12-18T08:16:10;-6.20;99.90
4556;DHT22;2290;48.674;9.018;2022-12-18T08:18:37;-6.20;99.90
4556;DHT22;2290;48.674;9.018;2022-12-18T08:23:35;-6.00;99.90
4556;DHT22;2290;48.674;9.018;2022-12-18T08:26:01;-5.90;99.90
4556;DHT22;2290;48.674;9.018;2022-12-18T08:28:27;-5.80;99.90
4556;DHT22;2290;48.674;9.018;2022-12-18T08:30:53;-5.70;99.90
4556;DHT22;2290;48.674;9.018;2022-12-18T08:33:18;-5.60;99.90
4556;DHT22;2290;48.674;9.018;2022-12-18T08:35:44;-5.40;99.90
4556;DHT22;2290;48.674;9.018;2022-12-18T08:38:09;-5.30;99.90
4556;DHT22;2290;48.674;9.018;2022-12-18T08:40:35;-5.20;99.90
4556;DHT22;2290;48.674;9.018;2022-12-18T08:43:00;-5.00;99.90
4556;DHT22;2290;48.674;9.018;2022-12-18T08:45:44;-4.90;99.90
4556;DHT22;2290;48.674;9.018;2022-12-18T08:48:10;-4.70;99.90
4556;DHT22;2290;48.674;9.018;2022-12-18T08:50:35;-4.50;99.90
4556;DHT22;2290;48.674;9.018;2022-12-18T08:53:01;-4.40;99.90
4556;DHT22;2290;48.674;9.018;2022-12-18T08:55:28;-4.40;99.90
4556;DHT22;2290;48.674;9.018;2022-12-18T08:57:54;-4.40;99.90
4556;DHT22;2290;48.674;9.018;2022-12-18T09:00:20;-4.40;99.90
4556;DHT22;2290;48.674;9.018;2022-12-18T09:02:45;-4.30;99.90
4556;DHT22;2290;48.674;9.018;2022-12-18T09:05:11;-4.20;99.90
4556;DHT22;2290;48.674;9.018;2022-12-18T09:07:36;-4.00;99.90
4556;DHT22;2290;48.674;9.018;2022-12-18T09:10:02;-3.80;99.90
4556;DHT22;2290;48.674;9.018;2022-12-18T09:12:28;-3.60;99.90
4556;DHT22;2290;48.674;9.018;2022-12-18T09:14:54;-3.50;99.90
4556;DHT22;2290;48.674;9.018;2022-12-18T09:17:20;-3.40;99.90
4556;DHT22;2290;48.674;9.018;2022-12-18T09:19:46;-3.30;99.90
4556;DHT22;2290;48.674;9.018;2022-12-18T09:22:11;-3.20;99.90
4556;DHT22;2290;48.674;9.018;2022-12-18T09:24:37;-3.10;99.90
4556;DHT22;2290;48.674;9.018;2022-12-18T09:27:03;-3.20;99.90
4556;DHT22;2290;48.674;9.018;2022-12-18T09:29:28;-3.10;99.90
4556;DHT22;2290;48.674;9.018;2022-12-18T09:31:54;-3.20;99.90
4556;DHT22;2290;48.674;9.018;2022-12-18T09:34:19;-3.30;99.90
4556;DHT22;2290;48.674;9.018;2022-12-18T09:36:47;-3.30;99.90
4556;DHT22;2290;48.674;9.018;2022-12-18T09:39:13;-3.30;99.90
4556;DHT22;2290;48.674;9.018;2022-12-18T09:41:50;-3.20;99.90
4556;DHT22;2290;48.674;9.018;2022-12-18T09:44:33;-3.10;99.90
4556;DHT22;2290;48.674;9.018;2022-12-18T09:49:46;-2.90;99.90
4556;DHT22;2290;48.674;9.018;2022-12-18T09:54:42;-2.70;99.90
4556;DHT22;2290;48.674;9.018;2022-12-18T09:57:20;-2.50;99.90
4556;DHT22;2290;48.674;9.018;2022-12-18T09:59:52;-2.20;99.90
4556;DHT22;2290;48.674;9.018;2022-12-18T10:02:21;-2.10;99.90
4556;DHT22;2290;48.674;9.018;2022-12-18T10:05:10;-1.90;99.90
4556;DHT22;2290;48.674;9.018;2022-12-18T10:10:27;-1.60;99.90
4556;DHT22;2290;48.674;9.018;2022-12-18T10:18:32;-1.20;99.90
4556;DHT22;2290;48.674;9.018;2022-12-18T10:21:26;-1.10;99.90
4556;DHT22;2290;48.674;9.018;2022-12-18T10:26:34;-0.70;99.90
4556;DHT22;2290;48.674;9.018;2022-12-18T10:29:00;-0.70;99.90
4556;DHT22;2290;48.674;9.018;2022-12-18T10:31:26;-0.50;99.90
4556;DHT22;2290;48.674;9.018;2022-12-18T10:33:55;-0.40;99.90
4556;DHT22;2290;48.674;9.018;2022-12-18T10:36:22;-0.20;99.90
4556;DHT22;2290;48.674;9.018;2022-12-18T10:38:48;-0.20;99.90
4556;DHT22;2290;48.674;9.018;2022-12-18T10:44:20;0.10;99.90
4556;DHT22;2290;48.674;9.018;2022-12-18T10:46:51;0.30;99.90
4556;DHT22;2290;48.674;9.018;2022-12-18T10:49:28;0.30;99.90
4556;DHT22;2290;48.674;9.018;2022-12-18T10:54:54;0.30;99.90
4556;DHT22;2290;48.674;9.018;2022-12-18T10:57:39;0.30;99.90
4556;DHT22;2290;48.674;9.018;2022-12-18T11:02:44;0.50;99.90
4556;DHT22;2290;48.674;9.018;2022-12-18T11:05:29;0.40;99.90
4556;DHT22;2290;48.674;9.018;2022-12-18T11:07:56;0.50;99.90
4556;DHT22;2290;48.674;9.018;2022-12-18T11:10:28;0.60;99.90
4556;DHT22;2290;48.674;9.018;2022-12-18T11:12:55;0.60;99.90
4556;DHT22;2290;48.674;9.018;2022-12-18T11:15:27;0.70;99.90
4556;DHT22;2290;48.674;9.018;2022-12-18T11:17:53;0.80;99.90
4556;DHT22;2290;48.674;9.018;2022-12-18T11:23:10;1.10;99.90
4556;DHT22;2290;48.674;9.018;2022-12-18T11:25:36;1.20;99.90
4556;DHT22;2290;48.674;9.018;2022-12-18T11:33:34;1.20;99.90
4556;DHT22;2290;48.674;9.018;2022-12-18T11:36:02;1.30;99.90
4556;DHT22;2290;48.674;9.018;2022-12-18T11:38:35;1.30;99.90
4556;DHT22;2290;48.674;9.018;2022-12-18T11:41:14;1.40;99.90
4556;DHT22;2290;48.674;9.018;2022-12-18T11:43:50;1.60;99.90
4556;DHT22;2290;48.674;9.018;2022-12-18T11:46:33;1.60;99.90
4556;DHT22;2290;48.674;9.018;2022-12-18T11:49:29;1.80;99.90
4556;DHT22;2290;48.674;9.018;2022-12-18T11:52:21;1.80;99.90
4556;DHT22;2290;48.674;9.018;2022-12-18T11:54:55;1.90;99.90
4556;DHT22;2290;48.674;9.018;2022-12-18T11:57:34;1.90;99.90
4556;DHT22;2290;48.674;9.018;2022-12-18T12:00:20;2.00;99.90
4556;DHT22;2290;48.674;9.018;2022-12-18T12:11:48;2.00;99.90
4556;DHT22;2290;48.674;9.018;2022-12-18T12:22:22;2.00;99.90
4556;DHT22;2290;48.674;9.018;2022-12-18T12:30:05;1.80;99.90
4556;DHT22;2290;48.674;9.018;2022-12-18T12:32:54;1.80;99.90
4556;DHT22;2290;48.674;9.018;2022-12-18T12:35:32;1.70;99.90
4556;DHT22;2290;48.674;9.018;2022-12-18T12:38:17;1.60;99.90
4556;DHT22;2290;48.674;9.018;2022-12-18T12:40:56;1.50;99.90
4556;DHT22;2290;48.674;9.018;2022-12-18T12:46:10;1.50;99.90
4556;DHT22;2290;48.674;9.018;2022-12-18T12:48:43;1.40;99.90
4556;DHT22;2290;48.674;9.018;2022-12-18T12:53:48;1.30;99.90
4556;DHT22;2290;48.674;9.018;2022-12-18T12:56:16;1.20;99.90
4556;DHT22;2290;48.674;9.018;2022-12-18T13:04:45;1.50;99.90
4556;DHT22;2290;48.674;9.018;2022-12-18T13:07:03;1.40;99.90
4556;DHT22;2290;48.674;9.018;2022-12-18T13:09:32;1.40;99.90
4556;DHT22;2290;48.674;9.018;2022-12-18T13:12:11;1.40;99.90
4556;DHT22;2290;48.674;9.018;2022-12-18T13:15:13;1.40;99.90
4556;DHT22;2290;48.674;9.018;2022-12-18T13:17:45;1.40;99.90
4556;DHT22;2290;48.674;9.018;2022-12-18T13:20:13;1.40;99.90
4556;DHT22;2290;48.674;9.018;2022-12-18T13:22:47;1.40;99.90
4556;DHT22;2290;48.674;9.018;2022-12-18T13:25:43;1.40;99.90
4556;DHT22;2290;48.674;9.018;2022-12-18T13:28:13;1.50;99.90
4556;DHT22;2290;48.674;9.018;2022-12-18T13:30:56;1.50;99.90
4556;DHT22;2290;48.674;9.018;2022-12-18T13:38:23;1.50;99.90
4556;DHT22;2290;48.674;9.018;2022-12-18T13:45:50;1.30;99.90
4556;DHT22;2290;48.674;9.018;2022-12-18T13:48:25;1.30;99.90
4556;DHT22;2290;48.674;9.018;2022-12-18T13:51:15;1.30;99.90
4556;DHT22;2290;48.674;9.018;2022-12-18T13:53:43;1.30;99.90
4556;DHT22;2290;48.674;9.018;2022-12-18T13:56:16;1.20;99.90
4556;DHT22;2290;48.674;9.018;2022-12-18T13:58:41;1.20;99.90
4556;DHT22;2290;48.674;9.018;2022-12-18T14:01:22;1.30;99.90
4556;DHT22;2290;48.674;9.018;2022-12-18T14:03:48;1.30;99.90
4556;DHT22;2290;48.674;9.018;2022-12-18T14:06:14;1.20;99.90
4556;DHT22;2290;48.674;9.018;2022-12-18T14:08:41;1.10;99.90
4556;DHT22;2290;48.674;9.018;2022-12-18T14:11:19;1.00;99.90
4556;DHT22;2290;48.674;9.018;2022-12-18T14:13:46;0.90;99.90
4556;DHT22;2290;48.674;9.018;2022-12-18T14:16:14;0.80;99.90
4556;DHT22;2290;48.674;9.018;2022-12-18T14:21:27;0.80;99.90
4556;DHT22;2290;48.674;9.018;2022-12-18T14:26:37;0.80;99.90
4556;DHT22;2290;48.674;9.018;2022-12-18T14:31:45;0.70;99.90
4556;DHT22;2290;48.674;9.018;2022-12-18T14:34:17;0.60;99.90
4556;DHT22;2290;48.674;9.018;2022-12-18T14:36:52;0.60;99.90
4556;DHT22;2290;48.674;9.018;2022-12-18T14:39:19;0.50;99.90
4556;DHT22;2290;48.674;9.018;2022-12-18T14:41:44;0.40;99.90
4556;DHT22;2290;48.674;9.018;2022-12-18T14:44:12;0.30;99.90
4556;DHT22;2290;48.674;9.018;2022-12-18T14:46:39;0.20;99.90
4556;DHT22;2290;48.674;9.018;2022-12-18T14:49:29;0.00;99.90
4556;DHT22;2290;48.674;9.018;2022-12-18T14:52:00;-0.10;99.90
4556;DHT22;2290;48.674;9.018;2022-12-18T14:54:28;-0.20;99.90
4556;DHT22;2290;48.674;9.018;2022-12-18T14:57:01;-0.30;99.90
4556;DHT22;2290;48.674;9.018;2022-12-18T14:59:28;-0.50;99.90
4556;DHT22;2290;48.674;9.018;2022-12-18T15:04:38;-0.70;99.90
4556;DHT22;2290;48.674;9.018;2022-12-18T15:07:14;-0.90;99.90
4556;DHT22;2290;48.674;9.018;2022-12-18T15:09:43;-1.10;99.90
4556;DHT22;2290;48.674;9.018;2022-12-18T15:12:39;-1.20;99.90
4556;DHT22;2290;48.674;9.018;2022-12-18T15:23:36;-1.00;99.90
4556;DHT22;2290;48.674;9.018;2022-12-18T15:26:07;-1.00;99.90
4556;DHT22;2290;48.674;9.018;2022-12-18T15:28:34;-1.00;99.90
4556;DHT22;2290;48.674;9.018;2022-12-18T15:31:17;-1.10;99.90
4556;DHT22;2290;48.674;9.018;2022-12-18T15:36:19;-1.40;99.90
4556;DHT22;2290;48.674;9.018;2022-12-18T15:38:53;-1.50;99.90
4556;DHT22;2290;48.674;9.018;2022-12-18T15:41:21;-1.50;99.90
4556;DHT22;2290;48.674;9.018;2022-12-18T15:43:52;-1.60;99.90
4556;DHT22;2290;48.674;9.018;2022-12-18T15:46:19;-1.60;99.90
4556;DHT22;2290;48.674;9.018;2022-12-18T15:48:50;-1.70;99.90
4556;DHT22;2290;48.674;9.018;2022-12-18T15:51:26;-1.80;99.90
4556;DHT22;2290;48.674;9.018;2022-12-18T15:53:58;-1.80;99.90
4556;DHT22;2290;48.674;9.018;2022-12-18T15:56:25;-1.80;99.90
4556;DHT22;2290;48.674;9.018;2022-12-18T15:59:12;-1.80;99.90
4556;DHT22;2290;48.674;9.018;2022-12-18T16:01:39;-1.90;99.90
4556;DHT22;2290;48.674;9.018;2022-12-18T16:04:05;-2.00;99.90
4556;DHT22;2290;48.674;9.018;2022-12-18T16:06:31;-2.10;99.90
4556;DHT22;2290;48.674;9.018;2022-12-18T16:08:56;-2.10;99.90
4556;DHT22;2290;48.674;9.018;2022-12-18T16:11:28;-2.20;99.90
4556;DHT22;2290;48.674;9.018;2022-12-18T16:14:20;-2.20;99.90
4556;DHT22;2290;48.674;9.018;2022-12-18T16:16:48;-2.20;99.90
4556;DHT22;2290;48.674;9.018;2022-12-18T16:19:14;-2.30;99.90
4556;DHT22;2290;48.674;9.018;2022-12-18T16:21:39;-2.30;99.90
4556;DHT22;2290;48.674;9.018;2022-12-18T16:24:13;-2.30;99.90
4556;DHT22;2290;48.674;9.018;2022-12-18T16:26:40;-2.30;99.90
4556;DHT22;2290;48.674;9.018;2022-12-18T16:29:07;-2.30;99.90
4556;DHT22;2290;48.674;9.018;2022-12-18T16:31:33;-2.30;99.90
4556;DHT22;2290;48.674;9.018;2022-12-18T16:34:20;-2.30;99.90
4556;DHT22;2290;48.674;9.018;2022-12-18T16:36:52;-2.30;99.90
4556;DHT22;2290;48.674;9.018;2022-12-18T16:39:19;-2.20;99.90
4556;DHT22;2290;48.674;9.018;2022-12-18T16:41:45;-2.30;99.90
4556;DHT22;2290;48.674;9.018;2022-12-18T16:44:11;-2.40;99.90
4556;DHT22;2290;48.674;9.018;2022-12-18T16:46:37;-2.30;99.90
4556;DHT22;2290;48.674;9.018;2022-12-18T16:49:04;-2.30;99.90
4556;DHT22;2290;48.674;9.018;2022-12-18T16:51:30;-2.30;99.90
4556;DHT22;2290;48.674;9.018;2022-12-18T16:53:56;-2.30;99.90
4556;DHT22;2290;48.674;9.018;2022-12-18T16:56:22;-2.30;99.90
4556;DHT22;2290;48.674;9.018;2022-12-18T16:58:52;-2.30;99.90
4556;DHT22;2290;48.674;9.018;2022-12-18T17:01:17;-2.30;99.90
4556;DHT22;2290;48.674;9.018;2022-12-18T17:03:43;-2.30;99.90
4556;DHT22;2290;48.674;9.018;2022-12-18T17:06:08;-2.30;99.90
4556;DHT22;2290;48.674;9.018;2022-12-18T17:08:34;-2.30;99.90
4556;DHT22;2290;48.674;9.018;2022-12-18T17:11:07;-2.30;99.90
4556;DHT22;2290;48.674;9.018;2022-12-18T17:13:33;-2.30;99.90
4556;DHT22;2290;48.674;9.018;2022-12-18T17:16:06;-2.30;99.90
4556;DHT22;2290;48.674;9.018;2022-12-18T17:18:33;-2.30;99.90
4556;DHT22;2290;48.674;9.018;2022-12-18T17:21:03;-2.30;99.90
4556;DHT22;2290;48.674;9.018;2022-12-18T17:23:29;-2.30;99.90
4556;DHT22;2290;48.674;9.018;2022-12-18T17:25:58;-2.20;99.90
4556;DHT22;2290;48.674;9.018;2022-12-18T17:28:25;-2.20;99.90
4556;DHT22;2290;48.674;9.018;2022-12-18T17:30:52;-2.20;99.90
4556;DHT22;2290;48.674;9.018;2022-12-18T17:33:18;-2.20;99.90
4556;DHT22;2290;48.674;9.018;2022-12-18T17:35:44;-2.20;99.90
4556;DHT22;2290;48.674;9.018;2022-12-18T17:38:09;-2.20;99.90
4556;DHT22;2290;48.674;9.018;2022-12-18T17:40:35;-2.20;99.90
4556;DHT22;2290;48.674;9.018;2022-12-18T17:43:01;-2.20;99.90
4556;DHT22;2290;48.674;9.018;2022-12-18T17:45:26;-2.20;99.90
4556;DHT22;2290;48.674;9.018;2022-12-18T17:47:52;-2.20;99.90
4556;DHT22;2290;48.674;9.018;2022-12-18T17:50:18;-2.20;99.90
4556;DHT22;2290;48.674;9.018;2022-12-18T17:52:45;-2.20;99.90
4556;DHT22;2290;48.674;9.018;2022-12-18T17:55:11;-2.20;99.90
4556;DHT22;2290;48.674;9.018;2022-12-18T17:57:36;-2.20;99.90
4556;DHT22;2290;48.674;9.018;2022-12-18T18:00:05;-2.20;99.90
4556;DHT22;2290;48.674;9.018;2022-12-18T18:02:31;-2.20;99.90
4556;DHT22;2290;48.674;9.018;2022-12-18T18:04:57;-2.10;99.90
4556;DHT22;2290;48.674;9.018;2022-12-18T18:07:22;-2.20;99.90
4556;DHT22;2290;48.674;9.018;2022-12-18T18:09:48;-2.10;99.90
4556;DHT22;2290;48.674;9.018;2022-12-18T18:12:13;-2.10;99.90
4556;DHT22;2290;48.674;9.018;2022-12-18T18:14:58;-2.20;99.90
4556;DHT22;2290;48.674;9.018;2022-12-18T18:17:23;-2.20;99.90
4556;DHT22;2290;48.674;9.018;2022-12-18T18:19:49;-2.20;99.90
4556;DHT22;2290;48.674;9.018;2022-12-18T18:22:15;-2.20;99.90
4556;DHT22;2290;48.674;9.018;2022-12-18T18:24:40;-2.20;99.90
4556;DHT22;2290;48.674;9.018;2022-12-18T18:27:08;-2.20;99.90
4556;DHT22;2290;48.674;9.018;2022-12-18T18:29:33;-2.20;99.90
4556;DHT22;2290;48.674;9.018;2022-12-18T18:31:59;-2.10;99.90
4556;DHT22;2290;48.674;9.018;2022-12-18T18:34:30;-2.10;99.90
4556;DHT22;2290;48.674;9.018;2022-12-18T18:36:56;-2.10;99.90
4556;DHT22;2290;48.674;9.018;2022-12-18T18:39:21;-2.10;99.90
4556;DHT22;2290;48.674;9.018;2022-12-18T18:41:47;-2.20;99.90